sensor_id;sensor_type;location;lat;lon;timestamp;P1;durP1;ratioP1;P2;durP2;ratioP2
39524;SDS011;25203;50.754;6.978;2022-08-04T00:00:12;3.42;;;1.75;;
39524;SDS011;25203;50.754;6.978;2022-08-04T00:02:23;5.88;;;2.40;;
39524;SDS011;25203;50.754;6.978;2022-08-04T00:09:09;4.20;;;2.33;;
39524;SDS011;25203;50.754;6.978;2022-08-04T00:11:37;7.35;;;2.25;;
39524;SDS011;25203;50.754;6.978;2022-08-04T00:13:44;3.88;;;2.10;;
39524;SDS011;25203;50.754;6.978;2022-08-04T00:15:53;9.25;;;2.50;;
39524;SDS011;25203;50.754;6.978;2022-08-04T00:18:04;4.43;;;1.95;;
39524;SDS011;25203;50.754;6.978;2022-08-04T00:20:08;2.95;;;1.80;;
39524;SDS011;25203;50.754;6.978;2022-08-04T00:22:10;4.18;;;2.13;;
39524;SDS011;25203;50.754;6.978;2022-08-04T00:24:13;5.15;;;2.30;;
39524;SDS011;25203;50.754;6.978;2022-08-04T00:26:15;5.22;;;2.03;;
39524;SDS011;25203;50.754;6.978;2022-08-04T00:28:17;3.72;;;2.00;;
39524;SDS011;25203;50.754;6.978;2022-08-04T00:30:19;5.55;;;1.83;;
39524;SDS011;25203;50.754;6.978;2022-08-04T00:32:20;2.60;;;1.77;;
39524;SDS011;25203;50.754;6.978;2022-08-04T00:34:25;4.82;;;2.55;;
39524;SDS011;25203;50.754;6.978;2022-08-04T00:36:27;3.33;;;2.38;;
39524;SDS011;25203;50.754;6.978;2022-08-04T00:38:29;5.38;;;2.15;;
39524;SDS011;25203;50.754;6.978;2022-08-04T00:40:44;3.17;;;2.05;;
39524;SDS011;25203;50.754;6.978;2022-08-04T00:42:48;7.40;;;2.90;;
39524;SDS011;25203;50.754;6.978;2022-08-04T01:01:40;2.75;;;1.70;;
39524;SDS011;25203;50.754;6.978;2022-08-04T01:06:15;5.18;;;2.00;;
39524;SDS011;25203;50.754;6.978;2022-08-04T01:11:20;3.30;;;2.05;;
39524;SDS011;25203;50.754;6.978;2022-08-04T01:13:40;3.13;;;2.03;;
39524;SDS011;25203;50.754;6.978;2022-08-04T01:16:08;4.85;;;2.38;;
39524;SDS011;25203;50.754;6.978;2022-08-04T01:18:16;5.95;;;2.30;;
39524;SDS011;25203;50.754;6.978;2022-08-04T01:20:30;3.22;;;1.90;;
39524;SDS011;25203;50.754;6.978;2022-08-04T01:24:56;3.85;;;2.60;;
39524;SDS011;25203;50.754;6.978;2022-08-04T01:29:23;6.18;;;2.67;;
39524;SDS011;25203;50.754;6.978;2022-08-04T01:31:34;2.92;;;2.13;;
39524;SDS011;25203;50.754;6.978;2022-08-04T01:33:47;3.33;;;1.83;;
39524;SDS011;25203;50.754;6.978;2022-08-04T01:35:50;2.88;;;2.33;;
39524;SDS011;25203;50.754;6.978;2022-08-04T01:38:00;2.38;;;1.98;;
39524;SDS011;25203;50.754;6.978;2022-08-04T01:40:07;3.17;;;2.20;;
39524;SDS011;25203;50.754;6.978;2022-08-04T01:42:08;6.88;;;2.72;;
39524;SDS011;25203;50.754;6.978;2022-08-04T01:44:10;3.28;;;2.08;;
39524;SDS011;25203;50.754;6.978;2022-08-04T01:46:15;2.55;;;2.05;;
39524;SDS011;25203;50.754;6.978;2022-08-04T01:48:17;5.50;;;2.47;;
39524;SDS011;25203;50.754;6.978;2022-08-04T01:50:24;4.85;;;2.38;;
39524;SDS011;25203;50.754;6.978;2022-08-04T01:52:26;3.15;;;2.10;;
39524;SDS011;25203;50.754;6.978;2022-08-04T01:54:28;6.50;;;2.40;;
39524;SDS011;25203;50.754;6.978;2022-08-04T01:56:30;3.22;;;2.25;;
39524;SDS011;25203;50.754;6.978;2022-08-04T01:58:32;4.10;;;2.17;;
39524;SDS011;25203;50.754;6.978;2022-08-04T02:00:33;3.92;;;2.42;;
39524;SDS011;25203;50.754;6.978;2022-08-04T02:02:39;3.83;;;2.38;;
39524;SDS011;25203;50.754;6.978;2022-08-04T02:04:40;5.65;;;2.95;;
39524;SDS011;25203;50.754;6.978;2022-08-04T02:08:56;5.78;;;2.63;;
39524;SDS011;25203;50.754;6.978;2022-08-04T02:13:22;4.00;;;2.70;;
39524;SDS011;25203;50.754;6.978;2022-08-04T02:15:29;3.10;;;2.25;;
39524;SDS011;25203;50.754;6.978;2022-08-04T02:17:37;5.05;;;2.28;;
39524;SDS011;25203;50.754;6.978;2022-08-04T02:20:06;3.78;;;2.47;;
39524;SDS011;25203;50.754;6.978;2022-08-04T02:22:17;3.75;;;2.28;;
39524;SDS011;25203;50.754;6.978;2022-08-04T02:24:21;4.20;;;2.30;;
39524;SDS011;25203;50.754;6.978;2022-08-04T02:26:27;3.17;;;2.30;;
39524;SDS011;25203;50.754;6.978;2022-08-04T02:33:16;5.25;;;2.60;;
39524;SDS011;25203;50.754;6.978;2022-08-04T02:35:25;5.70;;;2.28;;
39524;SDS011;25203;50.754;6.978;2022-08-04T02:37:27;6.57;;;2.53;;
39524;SDS011;25203;50.754;6.978;2022-08-04T02:39:32;5.03;;;2.10;;
39524;SDS011;25203;50.754;6.978;2022-08-04T02:41:34;5.05;;;2.58;;
39524;SDS011;25203;50.754;6.978;2022-08-04T02:43:35;4.50;;;2.63;;
39524;SDS011;25203;50.754;6.978;2022-08-04T02:45:41;2.40;;;2.15;;
39524;SDS011;25203;50.754;6.978;2022-08-04T02:47:43;6.35;;;2.20;;
39524;SDS011;25203;50.754;6.978;2022-08-04T02:49:47;8.50;;;2.95;;
39524;SDS011;25203;50.754;6.978;2022-08-04T02:51:51;3.45;;;2.17;;
39524;SDS011;25203;50.754;6.978;2022-08-04T02:53:55;6.85;;;2.20;;
39524;SDS011;25203;50.754;6.978;2022-08-04T02:55:57;6.60;;;3.00;;
39524;SDS011;25203;50.754;6.978;2022-08-04T02:58:01;4.57;;;2.80;;
39524;SDS011;25203;50.754;6.978;2022-08-04T03:00:07;5.90;;;2.70;;
39524;SDS011;25203;50.754;6.978;2022-08-04T03:02:10;3.97;;;2.33;;
39524;SDS011;25203;50.754;6.978;2022-08-04T03:04:14;3.42;;;2.58;;
39524;SDS011;25203;50.754;6.978;2022-08-04T03:12:13;4.78;;;2.65;;
39524;SDS011;25203;50.754;6.978;2022-08-04T03:22:17;2.58;;;2.30;;
39524;SDS011;25203;50.754;6.978;2022-08-04T03:26:56;5.30;;;2.33;;
39524;SDS011;25203;50.754;6.978;2022-08-04T03:42:04;4.82;;;2.30;;
39524;SDS011;25203;50.754;6.978;2022-08-04T03:52:00;3.90;;;2.33;;
39524;SDS011;25203;50.754;6.978;2022-08-04T03:54:32;4.22;;;2.70;;
39524;SDS011;25203;50.754;6.978;2022-08-04T03:57:01;3.95;;;2.42;;
39524;SDS011;25203;50.754;6.978;2022-08-04T04:03:42;7.57;;;3.00;;
39524;SDS011;25203;50.754;6.978;2022-08-04T04:20:36;3.67;;;2.40;;
39524;SDS011;25203;50.754;6.978;2022-08-04T04:32:41;4.07;;;2.40;;
39524;SDS011;25203;50.754;6.978;2022-08-04T04:35:07;3.45;;;2.38;;
39524;SDS011;25203;50.754;6.978;2022-08-04T04:37:29;2.83;;;2.28;;
39524;SDS011;25203;50.754;6.978;2022-08-04T04:44:26;7.15;;;2.60;;
39524;SDS011;25203;50.754;6.978;2022-08-04T04:49:16;2.50;;;2.30;;
39524;SDS011;25203;50.754;6.978;2022-08-04T04:51:12;3.13;;;2.20;;
39524;SDS011;25203;50.754;6.978;2022-08-04T04:53:19;3.13;;;2.47;;
39524;SDS011;25203;50.754;6.978;2022-08-04T04:55:28;3.40;;;2.58;;
39524;SDS011;25203;50.754;6.978;2022-08-04T04:57:34;3.90;;;3.13;;
39524;SDS011;25203;50.754;6.978;2022-08-04T04:59:38;4.32;;;2.28;;
39524;SDS011;25203;50.754;6.978;2022-08-04T05:04:24;4.78;;;3.00;;
39524;SDS011;25203;50.754;6.978;2022-08-04T05:11:11;5.10;;;3.20;;
39524;SDS011;25203;50.754;6.978;2022-08-04T05:15:45;5.68;;;2.70;;
39524;SDS011;25203;50.754;6.978;2022-08-04T05:17:48;4.85;;;2.60;;
39524;SDS011;25203;50.754;6.978;2022-08-04T05:22:21;2.38;;;2.17;;
39524;SDS011;25203;50.754;6.978;2022-08-04T05:24:26;4.07;;;2.70;;
39524;SDS011;25203;50.754;6.978;2022-08-04T05:26:29;5.22;;;2.70;;
39524;SDS011;25203;50.754;6.978;2022-08-04T05:28:35;4.60;;;2.20;;
39524;SDS011;25203;50.754;6.978;2022-08-04T05:30:40;3.90;;;2.67;;
39524;SDS011;25203;50.754;6.978;2022-08-04T05:32:56;4.05;;;2.90;;
39524;SDS011;25203;50.754;6.978;2022-08-04T05:35:03;5.53;;;2.30;;
39524;SDS011;25203;50.754;6.978;2022-08-04T05:37:09;5.93;;;2.63;;
39524;SDS011;25203;50.754;6.978;2022-08-04T05:39:23;4.07;;;2.40;;
39524;SDS011;25203;50.754;6.978;2022-08-04T05:41:26;3.78;;;2.92;;
39524;SDS011;25203;50.754;6.978;2022-08-04T05:43:31;5.72;;;2.50;;
39524;SDS011;25203;50.754;6.978;2022-08-04T05:45:33;5.57;;;2.50;;
39524;SDS011;25203;50.754;6.978;2022-08-04T05:47:34;3.72;;;2.63;;
39524;SDS011;25203;50.754;6.978;2022-08-04T05:49:36;3.35;;;2.47;;
39524;SDS011;25203;50.754;6.978;2022-08-04T05:51:39;3.55;;;2.78;;
39524;SDS011;25203;50.754;6.978;2022-08-04T05:53:41;2.88;;;2.10;;
39524;SDS011;25203;50.754;6.978;2022-08-04T05:55:43;3.15;;;2.30;;
39524;SDS011;25203;50.754;6.978;2022-08-04T05:57:45;2.53;;;2.33;;
39524;SDS011;25203;50.754;6.978;2022-08-04T05:59:47;3.20;;;2.45;;
39524;SDS011;25203;50.754;6.978;2022-08-04T06:01:50;2.08;;;1.88;;
39524;SDS011;25203;50.754;6.978;2022-08-04T06:03:53;2.92;;;1.92;;
39524;SDS011;25203;50.754;6.978;2022-08-04T06:05:56;3.55;;;1.98;;
39524;SDS011;25203;50.754;6.978;2022-08-04T06:07:57;3.45;;;2.25;;
39524;SDS011;25203;50.754;6.978;2022-08-04T06:09:58;3.63;;;2.30;;
39524;SDS011;25203;50.754;6.978;2022-08-04T06:12:00;1.75;;;1.65;;
39524;SDS011;25203;50.754;6.978;2022-08-04T06:14:06;2.17;;;1.98;;
39524;SDS011;25203;50.754;6.978;2022-08-04T06:16:08;4.05;;;2.08;;
39524;SDS011;25203;50.754;6.978;2022-08-04T06:18:11;3.58;;;2.40;;
39524;SDS011;25203;50.754;6.978;2022-08-04T06:20:13;3.13;;;2.13;;
39524;SDS011;25203;50.754;6.978;2022-08-04T06:22:15;3.13;;;2.30;;
39524;SDS011;25203;50.754;6.978;2022-08-04T06:24:21;2.83;;;2.15;;
39524;SDS011;25203;50.754;6.978;2022-08-04T06:26:25;3.60;;;2.08;;
39524;SDS011;25203;50.754;6.978;2022-08-04T06:28:28;9.18;;;2.10;;
39524;SDS011;25203;50.754;6.978;2022-08-04T06:30:30;4.10;;;2.00;;
39524;SDS011;25203;50.754;6.978;2022-08-04T06:32:32;3.97;;;2.25;;
39524;SDS011;25203;50.754;6.978;2022-08-04T06:34:46;6.00;;;2.25;;
39524;SDS011;25203;50.754;6.978;2022-08-04T06:36:47;4.55;;;2.20;;
39524;SDS011;25203;50.754;6.978;2022-08-04T06:38:48;4.05;;;2.00;;
39524;SDS011;25203;50.754;6.978;2022-08-04T06:40:50;4.18;;;2.10;;
39524;SDS011;25203;50.754;6.978;2022-08-04T06:42:52;4.30;;;1.80;;
39524;SDS011;25203;50.754;6.978;2022-08-04T06:44:54;3.80;;;2.08;;
39524;SDS011;25203;50.754;6.978;2022-08-04T06:46:56;4.97;;;2.03;;
39524;SDS011;25203;50.754;6.978;2022-08-04T06:48:58;2.35;;;2.00;;
39524;SDS011;25203;50.754;6.978;2022-08-04T06:51:00;3.95;;;1.92;;
39524;SDS011;25203;50.754;6.978;2022-08-04T06:53:02;5.07;;;1.83;;
39524;SDS011;25203;50.754;6.978;2022-08-04T06:55:04;3.00;;;2.08;;
39524;SDS011;25203;50.754;6.978;2022-08-04T06:57:06;5.07;;;1.98;;
39524;SDS011;25203;50.754;6.978;2022-08-04T06:59:07;3.70;;;2.03;;
39524;SDS011;25203;50.754;6.978;2022-08-04T07:01:10;7.28;;;2.00;;
39524;SDS011;25203;50.754;6.978;2022-08-04T07:03:13;2.60;;;2.00;;
39524;SDS011;25203;50.754;6.978;2022-08-04T07:05:16;2.75;;;2.15;;
39524;SDS011;25203;50.754;6.978;2022-08-04T07:07:17;3.33;;;1.90;;
39524;SDS011;25203;50.754;6.978;2022-08-04T07:09:18;4.40;;;2.10;;
39524;SDS011;25203;50.754;6.978;2022-08-04T07:11:19;3.55;;;2.13;;
39524;SDS011;25203;50.754;6.978;2022-08-04T07:13:20;5.15;;;2.08;;
39524;SDS011;25203;50.754;6.978;2022-08-04T07:15:23;4.10;;;1.92;;
39524;SDS011;25203;50.754;6.978;2022-08-04T07:17:24;6.50;;;2.50;;
39524;SDS011;25203;50.754;6.978;2022-08-04T07:19:27;5.53;;;2.22;;
39524;SDS011;25203;50.754;6.978;2022-08-04T07:21:27;2.72;;;2.00;;
39524;SDS011;25203;50.754;6.978;2022-08-04T07:23:28;3.05;;;1.88;;
39524;SDS011;25203;50.754;6.978;2022-08-04T07:25:29;4.60;;;1.70;;
39524;SDS011;25203;50.754;6.978;2022-08-04T07:27:30;5.00;;;2.10;;
39524;SDS011;25203;50.754;6.978;2022-08-04T07:29:34;3.92;;;1.70;;
39524;SDS011;25203;50.754;6.978;2022-08-04T07:31:35;6.15;;;1.80;;
39524;SDS011;25203;50.754;6.978;2022-08-04T07:33:37;7.28;;;1.90;;
39524;SDS011;25203;50.754;6.978;2022-08-04T07:35:40;6.28;;;1.80;;
39524;SDS011;25203;50.754;6.978;2022-08-04T07:37:41;1.77;;;1.60;;
39524;SDS011;25203;50.754;6.978;2022-08-04T07:39:42;5.13;;;1.38;;
39524;SDS011;25203;50.754;6.978;2022-08-04T07:41:43;2.60;;;1.65;;
39524;SDS011;25203;50.754;6.978;2022-08-04T07:43:44;2.17;;;1.45;;
39524;SDS011;25203;50.754;6.978;2022-08-04T07:45:46;1.98;;;1.50;;
39524;SDS011;25203;50.754;6.978;2022-08-04T07:47:47;3.90;;;1.67;;
39524;SDS011;25203;50.754;6.978;2022-08-04T07:49:48;5.75;;;1.73;;
39524;SDS011;25203;50.754;6.978;2022-08-04T07:51:48;2.28;;;1.73;;
39524;SDS011;25203;50.754;6.978;2022-08-04T07:53:49;3.85;;;1.70;;
39524;SDS011;25203;50.754;6.978;2022-08-04T07:55:51;4.47;;;2.15;;
39524;SDS011;25203;50.754;6.978;2022-08-04T07:57:55;4.28;;;1.60;;
39524;SDS011;25203;50.754;6.978;2022-08-04T07:59:55;3.33;;;1.50;;
39524;SDS011;25203;50.754;6.978;2022-08-04T08:02:00;3.72;;;1.60;;
39524;SDS011;25203;50.754;6.978;2022-08-04T08:04:01;2.25;;;1.35;;
39524;SDS011;25203;50.754;6.978;2022-08-04T08:06:04;6.85;;;1.75;;
39524;SDS011;25203;50.754;6.978;2022-08-04T08:08:05;1.98;;;1.27;;
39524;SDS011;25203;50.754;6.978;2022-08-04T08:10:11;4.63;;;1.50;;
39524;SDS011;25203;50.754;6.978;2022-08-04T08:12:13;4.38;;;1.55;;
39524;SDS011;25203;50.754;6.978;2022-08-04T08:14:15;12.75;;;1.70;;
39524;SDS011;25203;50.754;6.978;2022-08-04T08:16:17;2.40;;;1.38;;
39524;SDS011;25203;50.754;6.978;2022-08-04T08:18:19;4.63;;;1.63;;
39524;SDS011;25203;50.754;6.978;2022-08-04T08:20:20;2.63;;;1.48;;
39524;SDS011;25203;50.754;6.978;2022-08-04T08:22:21;1.92;;;1.60;;
39524;SDS011;25203;50.754;6.978;2022-08-04T08:24:21;1.98;;;1.35;;
39524;SDS011;25203;50.754;6.978;2022-08-04T08:26:22;2.90;;;1.55;;
39524;SDS011;25203;50.754;6.978;2022-08-04T08:28:23;3.72;;;1.40;;
39524;SDS011;25203;50.754;6.978;2022-08-04T08:30:25;4.28;;;1.67;;
39524;SDS011;25203;50.754;6.978;2022-08-04T08:32:25;3.15;;;1.30;;
39524;SDS011;25203;50.754;6.978;2022-08-04T08:34:27;3.47;;;1.90;;
39524;SDS011;25203;50.754;6.978;2022-08-04T08:37:14;1.77;;;1.65;;
39524;SDS011;25203;50.754;6.978;2022-08-04T08:41:50;4.25;;;1.77;;
39524;SDS011;25203;50.754;6.978;2022-08-04T08:43:44;1.63;;;1.40;;
39524;SDS011;25203;50.754;6.978;2022-08-04T08:45:58;1.95;;;1.52;;
39524;SDS011;25203;50.754;6.978;2022-08-04T08:48:18;2.10;;;1.52;;
39524;SDS011;25203;50.754;6.978;2022-08-04T08:50:54;2.35;;;1.35;;
39524;SDS011;25203;50.754;6.978;2022-08-04T08:53:29;2.30;;;1.50;;
39524;SDS011;25203;50.754;6.978;2022-08-04T08:58:30;2.25;;;1.40;;
39524;SDS011;25203;50.754;6.978;2022-08-04T09:05:28;3.33;;;1.50;;
39524;SDS011;25203;50.754;6.978;2022-08-04T09:17:00;1.70;;;1.60;;
39524;SDS011;25203;50.754;6.978;2022-08-04T09:19:11;5.57;;;1.40;;
39524;SDS011;25203;50.754;6.978;2022-08-04T09:21:23;4.75;;;1.55;;
39524;SDS011;25203;50.754;6.978;2022-08-04T09:26:00;4.28;;;1.70;;
39524;SDS011;25203;50.754;6.978;2022-08-04T09:28:18;5.50;;;1.70;;
39524;SDS011;25203;50.754;6.978;2022-08-04T09:30:33;6.32;;;2.00;;
39524;SDS011;25203;50.754;6.978;2022-08-04T09:33:03;4.65;;;1.77;;
39524;SDS011;25203;50.754;6.978;2022-08-04T09:38:07;5.15;;;2.33;;
39524;SDS011;25203;50.754;6.978;2022-08-04T09:44:47;2.28;;;1.77;;
39524;SDS011;25203;50.754;6.978;2022-08-04T09:47:04;2.97;;;1.70;;
39524;SDS011;25203;50.754;6.978;2022-08-04T09:52:15;2.72;;;2.00;;
39524;SDS011;25203;50.754;6.978;2022-08-04T09:59:48;4.50;;;2.10;;
39524;SDS011;25203;50.754;6.978;2022-08-04T10:01:34;3.88;;;1.88;;
39524;SDS011;25203;50.754;6.978;2022-08-04T10:03:38;3.15;;;1.67;;
39524;SDS011;25203;50.754;6.978;2022-08-04T10:05:59;4.78;;;1.70;;
39524;SDS011;25203;50.754;6.978;2022-08-04T10:11:06;8.02;;;2.50;;
39524;SDS011;25203;50.754;6.978;2022-08-04T10:17:58;4.10;;;1.63;;
39524;SDS011;25203;50.754;6.978;2022-08-04T10:20:17;4.50;;;1.67;;
39524;SDS011;25203;50.754;6.978;2022-08-04T10:22:35;3.72;;;1.70;;
39524;SDS011;25203;50.754;6.978;2022-08-04T10:27:39;7.47;;;1.65;;
39524;SDS011;25203;50.754;6.978;2022-08-04T10:29:43;2.83;;;1.10;;
39524;SDS011;25203;50.754;6.978;2022-08-04T10:31:52;3.05;;;1.00;;
39524;SDS011;25203;50.754;6.978;2022-08-04T10:36:23;1.38;;;1.10;;
39524;SDS011;25203;50.754;6.978;2022-08-04T10:42:59;1.25;;;1.05;;
39524;SDS011;25203;50.754;6.978;2022-08-04T10:45:08;3.80;;;1.20;;
39524;SDS011;25203;50.754;6.978;2022-08-04T10:47:23;3.55;;;1.50;;
39524;SDS011;25203;50.754;6.978;2022-08-04T10:49:37;6.22;;;1.58;;
39524;SDS011;25203;50.754;6.978;2022-08-04T10:54:02;1.55;;;1.10;;
39524;SDS011;25203;50.754;6.978;2022-08-04T10:56:18;1.92;;;1.23;;
39524;SDS011;25203;50.754;6.978;2022-08-04T10:58:32;2.05;;;0.95;;
39524;SDS011;25203;50.754;6.978;2022-08-04T11:00:55;1.97;;;0.90;;
39524;SDS011;25203;50.754;6.978;2022-08-04T11:07:30;1.25;;;0.80;;
39524;SDS011;25203;50.754;6.978;2022-08-04T11:09:34;3.28;;;0.95;;
39524;SDS011;25203;50.754;6.978;2022-08-04T11:14:16;3.42;;;1.10;;
39524;SDS011;25203;50.754;6.978;2022-08-04T11:16:23;4.47;;;0.90;;
39524;SDS011;25203;50.754;6.978;2022-08-04T11:18:52;1.23;;;1.13;;
39524;SDS011;25203;50.754;6.978;2022-08-04T11:21:11;2.22;;;0.90;;
39524;SDS011;25203;50.754;6.978;2022-08-04T11:23:17;1.85;;;0.90;;
39524;SDS011;25203;50.754;6.978;2022-08-04T11:25:24;8.00;;;1.33;;
39524;SDS011;25203;50.754;6.978;2022-08-04T11:27:36;3.72;;;1.20;;
39524;SDS011;25203;50.754;6.978;2022-08-04T11:32:07;4.50;;;1.30;;
39524;SDS011;25203;50.754;6.978;2022-08-04T11:34:20;2.42;;;1.20;;
39524;SDS011;25203;50.754;6.978;2022-08-04T11:40:49;4.93;;;1.40;;
39524;SDS011;25203;50.754;6.978;2022-08-04T11:42:56;3.00;;;1.45;;
39524;SDS011;25203;50.754;6.978;2022-08-04T11:45:10;4.43;;;1.23;;
39524;SDS011;25203;50.754;6.978;2022-08-04T11:48:00;9.23;;;1.80;;
39524;SDS011;25203;50.754;6.978;2022-08-04T11:49:43;22.42;;;2.08;;
39524;SDS011;25203;50.754;6.978;2022-08-04T11:51:51;8.77;;;1.85;;
39524;SDS011;25203;50.754;6.978;2022-08-04T11:53:55;15.48;;;1.77;;
39524;SDS011;25203;50.754;6.978;2022-08-04T11:55:57;15.93;;;1.70;;
39524;SDS011;25203;50.754;6.978;2022-08-04T11:58:00;10.50;;;1.90;;
39524;SDS011;25203;50.754;6.978;2022-08-04T12:00:03;8.30;;;1.65;;
39524;SDS011;25203;50.754;6.978;2022-08-04T12:15:44;7.75;;;1.48;;
39524;SDS011;25203;50.754;6.978;2022-08-04T12:20:17;5.45;;;1.50;;
39524;SDS011;25203;50.754;6.978;2022-08-04T12:22:21;7.20;;;1.63;;
39524;SDS011;25203;50.754;6.978;2022-08-04T12:24:36;6.90;;;1.35;;
39524;SDS011;25203;50.754;6.978;2022-08-04T12:26:42;7.90;;;2.00;;
39524;SDS011;25203;50.754;6.978;2022-08-04T12:28:49;9.40;;;2.13;;
39524;SDS011;25203;50.754;6.978;2022-08-04T12:30:57;12.63;;;2.00;;
39524;SDS011;25203;50.754;6.978;2022-08-04T12:33:06;5.88;;;1.58;;
39524;SDS011;25203;50.754;6.978;2022-08-04T12:35:20;9.38;;;1.77;;
39524;SDS011;25203;50.754;6.978;2022-08-04T12:37:33;4.50;;;1.80;;
39524;SDS011;25203;50.754;6.978;2022-08-04T12:39:47;8.10;;;1.48;;
39524;SDS011;25203;50.754;6.978;2022-08-04T12:41:51;5.25;;;1.80;;
39524;SDS011;25203;50.754;6.978;2022-08-04T12:44:03;7.45;;;1.58;;
39524;SDS011;25203;50.754;6.978;2022-08-04T12:46:19;8.10;;;1.57;;
39524;SDS011;25203;50.754;6.978;2022-08-04T12:48:24;10.10;;;1.88;;
39524;SDS011;25203;50.754;6.978;2022-08-04T12:50:25;5.90;;;1.92;;
39524;SDS011;25203;50.754;6.978;2022-08-04T12:52:28;9.15;;;1.73;;
39524;SDS011;25203;50.754;6.978;2022-08-04T12:54:30;8.93;;;1.65;;
39524;SDS011;25203;50.754;6.978;2022-08-04T12:56:35;4.82;;;1.30;;
39524;SDS011;25203;50.754;6.978;2022-08-04T12:58:37;7.38;;;1.73;;
39524;SDS011;25203;50.754;6.978;2022-08-04T13:00:41;6.57;;;1.50;;
39524;SDS011;25203;50.754;6.978;2022-08-04T13:02:43;4.28;;;1.70;;
39524;SDS011;25203;50.754;6.978;2022-08-04T13:04:45;6.43;;;1.70;;
39524;SDS011;25203;50.754;6.978;2022-08-04T13:06:55;2.80;;;1.30;;
39524;SDS011;25203;50.754;6.978;2022-08-04T13:09:03;10.20;;;2.10;;
39524;SDS011;25203;50.754;6.978;2022-08-04T13:11:06;8.05;;;1.27;;
39524;SDS011;25203;50.754;6.978;2022-08-04T13:13:22;11.70;;;1.40;;
39524;SDS011;25203;50.754;6.978;2022-08-04T13:15:25;5.20;;;1.20;;
39524;SDS011;25203;50.754;6.978;2022-08-04T13:17:38;4.68;;;1.48;;
39524;SDS011;25203;50.754;6.978;2022-08-04T13:19:48;3.60;;;1.50;;
39524;SDS011;25203;50.754;6.978;2022-08-04T13:21:50;3.17;;;1.25;;
39524;SDS011;25203;50.754;6.978;2022-08-04T13:23:53;5.75;;;1.50;;
39524;SDS011;25203;50.754;6.978;2022-08-04T13:25:57;6.35;;;1.40;;
39524;SDS011;25203;50.754;6.978;2022-08-04T13:27:58;4.72;;;1.38;;
39524;SDS011;25203;50.754;6.978;2022-08-04T13:29:59;6.43;;;1.42;;
39524;SDS011;25203;50.754;6.978;2022-08-04T13:32:01;3.72;;;1.13;;
39524;SDS011;25203;50.754;6.978;2022-08-04T13:34:05;2.83;;;1.20;;
39524;SDS011;25203;50.754;6.978;2022-08-04T13:36:07;5.10;;;1.52;;
39524;SDS011;25203;50.754;6.978;2022-08-04T13:38:10;2.72;;;1.20;;
39524;SDS011;25203;50.754;6.978;2022-08-04T13:40:12;6.95;;;1.60;;
39524;SDS011;25203;50.754;6.978;2022-08-04T13:42:15;4.35;;;1.27;;
39524;SDS011;25203;50.754;6.978;2022-08-04T13:44:17;3.40;;;1.50;;
39524;SDS011;25203;50.754;6.978;2022-08-04T13:46:21;5.20;;;1.38;;
39524;SDS011;25203;50.754;6.978;2022-08-04T13:48:37;3.53;;;1.45;;
39524;SDS011;25203;50.754;6.978;2022-08-04T13:50:44;7.22;;;1.70;;
39524;SDS011;25203;50.754;6.978;2022-08-04T13:52:46;4.25;;;1.25;;
39524;SDS011;25203;50.754;6.978;2022-08-04T13:54:51;8.27;;;2.35;;
39524;SDS011;25203;50.754;6.978;2022-08-04T13:56:53;3.85;;;1.58;;
39524;SDS011;25203;50.754;6.978;2022-08-04T13:58:57;3.35;;;1.17;;
39524;SDS011;25203;50.754;6.978;2022-08-04T14:03:05;4.20;;;1.55;;
39524;SDS011;25203;50.754;6.978;2022-08-04T14:05:08;6.47;;;1.35;;
39524;SDS011;25203;50.754;6.978;2022-08-04T14:07:14;5.73;;;1.40;;
39524;SDS011;25203;50.754;6.978;2022-08-04T14:09:17;12.65;;;1.73;;
39524;SDS011;25203;50.754;6.978;2022-08-04T14:11:21;6.57;;;2.40;;
39524;SDS011;25203;50.754;6.978;2022-08-04T14:13:42;4.75;;;1.50;;
39524;SDS011;25203;50.754;6.978;2022-08-04T14:15:43;3.67;;;1.40;;
39524;SDS011;25203;50.754;6.978;2022-08-04T14:17:44;2.95;;;1.52;;
39524;SDS011;25203;50.754;6.978;2022-08-04T14:21:46;5.82;;;1.77;;
39524;SDS011;25203;50.754;6.978;2022-08-04T14:25:52;4.90;;;1.95;;
39524;SDS011;25203;50.754;6.978;2022-08-04T14:27:54;4.53;;;1.48;;
39524;SDS011;25203;50.754;6.978;2022-08-04T14:29:56;3.92;;;2.08;;
39524;SDS011;25203;50.754;6.978;2022-08-04T14:32:00;6.35;;;2.05;;
39524;SDS011;25203;50.754;6.978;2022-08-04T14:34:02;3.33;;;1.35;;
39524;SDS011;25203;50.754;6.978;2022-08-04T14:36:03;6.70;;;1.75;;
39524;SDS011;25203;50.754;6.978;2022-08-04T14:40:06;4.57;;;1.60;;
39524;SDS011;25203;50.754;6.978;2022-08-04T14:44:55;6.72;;;1.48;;
39524;SDS011;25203;50.754;6.978;2022-08-04T14:46:58;4.03;;;1.50;;
39524;SDS011;25203;50.754;6.978;2022-08-04T14:49:08;8.18;;;1.77;;
39524;SDS011;25203;50.754;6.978;2022-08-04T14:51:11;5.60;;;1.95;;
39524;SDS011;25203;50.754;6.978;2022-08-04T14:53:16;7.80;;;2.60;;
39524;SDS011;25203;50.754;6.978;2022-08-04T14:55:18;4.18;;;2.10;;
39524;SDS011;25203;50.754;6.978;2022-08-04T14:57:21;11.35;;;2.15;;
39524;SDS011;25203;50.754;6.978;2022-08-04T14:59:22;9.52;;;1.75;;
39524;SDS011;25203;50.754;6.978;2022-08-04T15:01:23;3.17;;;1.65;;
39524;SDS011;25203;50.754;6.978;2022-08-04T15:03:25;4.88;;;1.63;;
39524;SDS011;25203;50.754;6.978;2022-08-04T15:05:27;5.13;;;1.70;;
39524;SDS011;25203;50.754;6.978;2022-08-04T15:07:29;5.88;;;1.70;;
39524;SDS011;25203;50.754;6.978;2022-08-04T15:09:30;4.63;;;1.88;;
39524;SDS011;25203;50.754;6.978;2022-08-04T15:11:32;7.57;;;1.63;;
39524;SDS011;25203;50.754;6.978;2022-08-04T15:13:34;8.98;;;2.22;;
39524;SDS011;25203;50.754;6.978;2022-08-04T15:15:40;7.45;;;1.85;;
39524;SDS011;25203;50.754;6.978;2022-08-04T15:17:44;7.72;;;1.67;;
39524;SDS011;25203;50.754;6.978;2022-08-04T15:19:45;4.00;;;1.85;;
39524;SDS011;25203;50.754;6.978;2022-08-04T15:21:46;7.10;;;1.83;;
39524;SDS011;25203;50.754;6.978;2022-08-04T15:23:48;6.45;;;2.58;;
39524;SDS011;25203;50.754;6.978;2022-08-04T15:25:51;4.78;;;2.20;;
39524;SDS011;25203;50.754;6.978;2022-08-04T15:27:55;10.93;;;1.77;;
39524;SDS011;25203;50.754;6.978;2022-08-04T15:29:59;6.38;;;1.88;;
39524;SDS011;25203;50.754;6.978;2022-08-04T15:32:07;5.22;;;1.75;;
39524;SDS011;25203;50.754;6.978;2022-08-04T15:34:09;6.90;;;2.78;;
39524;SDS011;25203;50.754;6.978;2022-08-04T15:38:28;8.98;;;1.70;;
39524;SDS011;25203;50.754;6.978;2022-08-04T15:43:06;6.85;;;2.75;;
39524;SDS011;25203;50.754;6.978;2022-08-04T15:45:16;2.97;;;1.55;;
39524;SDS011;25203;50.754;6.978;2022-08-04T15:47:23;4.22;;;1.70;;
39524;SDS011;25203;50.754;6.978;2022-08-04T15:49:24;6.65;;;1.98;;
39524;SDS011;25203;50.754;6.978;2022-08-04T15:51:26;5.70;;;2.05;;
39524;SDS011;25203;50.754;6.978;2022-08-04T15:53:30;9.13;;;2.10;;
39524;SDS011;25203;50.754;6.978;2022-08-04T15:55:52;7.15;;;1.80;;
39524;SDS011;25203;50.754;6.978;2022-08-04T15:57:56;3.63;;;1.85;;
39524;SDS011;25203;50.754;6.978;2022-08-04T16:00:06;6.72;;;2.60;;
39524;SDS011;25203;50.754;6.978;2022-08-04T16:04:38;4.40;;;2.22;;
39524;SDS011;25203;50.754;6.978;2022-08-04T16:06:39;7.07;;;2.35;;
39524;SDS011;25203;50.754;6.978;2022-08-04T16:10:51;6.13;;;2.20;;
39524;SDS011;25203;50.754;6.978;2022-08-04T16:12:54;4.50;;;2.35;;
39524;SDS011;25203;50.754;6.978;2022-08-04T16:15:17;9.02;;;2.60;;
39524;SDS011;25203;50.754;6.978;2022-08-04T16:17:39;5.95;;;1.70;;
39524;SDS011;25203;50.754;6.978;2022-08-04T16:19:51;12.40;;;2.40;;
39524;SDS011;25203;50.754;6.978;2022-08-04T16:22:02;9.55;;;2.97;;
39524;SDS011;25203;50.754;6.978;2022-08-04T16:24:09;10.77;;;2.75;;
39524;SDS011;25203;50.754;6.978;2022-08-04T16:28:41;9.13;;;3.22;;
39524;SDS011;25203;50.754;6.978;2022-08-04T16:30:42;15.68;;;4.45;;
39524;SDS011;25203;50.754;6.978;2022-08-04T16:32:43;13.05;;;5.38;;
39524;SDS011;25203;50.754;6.978;2022-08-04T16:36:55;6.43;;;3.63;;
39524;SDS011;25203;50.754;6.978;2022-08-04T16:38:59;8.25;;;4.45;;